N8426 KHOU-KLIT
Flight info
| Callsign | N8426 |
|---|---|
| Flight time | 0h 56m |
| Altitude | 33000 |
| Route | LURIC8 HAWES ELD LITTR |
| Aircraft | A20N/M-VGDW/C |
Departure
| Time | 2026-04-26 19:53 |
|---|---|
| Airport | William P. Hobby Airport (KHOU) |
Arrival
| Time | 2026-04-26 20:50 |
|---|---|
| Airport | Bill & Hillary Clinton National Airport/Adams Field (KLIT) |
| Time | Latitude | Longitude | Altitude | Speed | Heading |
|---|---|---|---|---|---|
| 2026-04-26 19:24 | 29.63936 | -95.27858 | 51 ft | 0 kts | 267° |
| 2026-04-26 19:46 | 29.63936 | -95.27887 | 51 ft | 10 kts | 270° |
| 2026-04-26 19:47 | 29.63936 | -95.28023 | 51 ft | 18 kts | 267° |
| 2026-04-26 19:47 | 29.63922 | -95.28109 | 51 ft | 16 kts | 248° |
| 2026-04-26 19:47 | 29.63940 | -95.28195 | 51 ft | 10 kts | 355° |
| 2026-04-26 19:47 | 29.63997 | -95.28150 | 48 ft | 12 kts | 44° |
| 2026-04-26 19:48 | 29.64070 | -95.28069 | 48 ft | 17 kts | 44° |
| 2026-04-26 19:48 | 29.64164 | -95.27964 | 51 ft | 21 kts | 45° |
| 2026-04-26 19:48 | 29.64283 | -95.27846 | 47 ft | 24 kts | 35° |
| 2026-04-26 19:48 | 29.64417 | -95.27735 | 48 ft | 25 kts | 39° |
| 2026-04-26 19:49 | 29.64536 | -95.27602 | 51 ft | 22 kts | 45° |
| 2026-04-26 19:49 | 29.64646 | -95.27483 | 51 ft | 21 kts | 43° |
| 2026-04-26 19:49 | 29.64759 | -95.27361 | 50 ft | 23 kts | 45° |
| 2026-04-26 19:49 | 29.64869 | -95.27237 | 51 ft | 21 kts | 43° |
| 2026-04-26 19:50 | 29.64977 | -95.27118 | 51 ft | 22 kts | 44° |
| 2026-04-26 19:50 | 29.65085 | -95.26998 | 52 ft | 21 kts | 41° |
| 2026-04-26 19:50 | 29.65194 | -95.26879 | 50 ft | 20 kts | 45° |
| 2026-04-26 19:50 | 29.65280 | -95.26785 | 48 ft | 9 kts | 38° |
| 2026-04-26 19:51 | 29.65315 | -95.26779 | 48 ft | 0 kts | 341° |
| 2026-04-26 19:52 | 29.65326 | -95.26786 | 47 ft | 2 kts | 327° |
| 2026-04-26 19:52 | 29.65358 | -95.26820 | 48 ft | 10 kts | 315° |
| 2026-04-26 19:52 | 29.65391 | -95.26884 | 51 ft | 9 kts | 270° |
| 2026-04-26 19:52 | 29.65374 | -95.26915 | 51 ft | 0 kts | 225° |
| 2026-04-26 19:53 | 29.65354 | -95.26938 | 49 ft | 30 kts | 224° |
| 2026-04-26 19:53 | 29.64896 | -95.27435 | 50 ft | 145 kts | 225° |
| 2026-04-26 19:53 | 29.64015 | -95.28416 | 468 ft | 198 kts | 219° |
| 2026-04-26 19:53 | 29.62918 | -95.29609 | 1160 ft | 239 kts | 225° |
| 2026-04-26 19:54 | 29.62005 | -95.31403 | 1973 ft | 285 kts | 247° |
| 2026-04-26 19:54 | 29.61717 | -95.33767 | 2652 ft | 310 kts | 269° |
| 2026-04-26 19:54 | 29.62244 | -95.35996 | 3248 ft | 274 kts | 295° |
| 2026-04-26 19:54 | 29.63450 | -95.37585 | 3635 ft | 260 kts | 323° |
| 2026-04-26 19:55 | 29.65119 | -95.38367 | 3977 ft | 266 kts | 350° |
| 2026-04-26 19:55 | 29.67048 | -95.38377 | 4392 ft | 294 kts | 5° |
| 2026-04-26 19:55 | 29.69126 | -95.38024 | 4829 ft | 302 kts | 10° |
| 2026-04-26 19:55 | 29.71157 | -95.37506 | 4965 ft | 294 kts | 12° |
| 2026-04-26 19:56 | 29.73099 | -95.36993 | 5107 ft | 286 kts | 12° |
| 2026-04-26 19:56 | 29.75024 | -95.36478 | 5551 ft | 286 kts | 12° |
| 2026-04-26 19:56 | 29.76990 | -95.35949 | 6163 ft | 293 kts | 12° |
| 2026-04-26 19:56 | 29.79001 | -95.35397 | 6756 ft | 295 kts | 12° |
| 2026-04-26 19:57 | 29.80975 | -95.34851 | 7338 ft | 297 kts | 12° |
| 2026-04-26 19:57 | 29.82996 | -95.34290 | 7923 ft | 299 kts | 12° |
| 2026-04-26 19:57 | 29.85032 | -95.33715 | 8644 ft | 301 kts | 12° |
| 2026-04-26 19:57 | 29.87082 | -95.33131 | 9394 ft | 305 kts | 12° |
| 2026-04-26 19:58 | 29.89148 | -95.32536 | 10115 ft | 307 kts | 12° |
| 2026-04-26 19:58 | 29.91290 | -95.31911 | 10834 ft | 327 kts | 12° |
| 2026-04-26 19:58 | 29.93553 | -95.31241 | 11555 ft | 345 kts | 12° |
| 2026-04-26 19:58 | 29.95834 | -95.30212 | 12294 ft | 360 kts | 26° |
| 2026-04-26 19:59 | 29.98015 | -95.28763 | 13052 ft | 364 kts | 28° |
| 2026-04-26 19:59 | 30.00198 | -95.27254 | 13807 ft | 366 kts | 28° |
| 2026-04-26 19:59 | 30.02389 | -95.25729 | 14497 ft | 370 kts | 28° |
| 2026-04-26 19:59 | 30.04610 | -95.24189 | 15207 ft | 374 kts | 27° |
| 2026-04-26 20:00 | 30.06853 | -95.22642 | 15933 ft | 377 kts | 27° |
| 2026-04-26 20:00 | 30.09120 | -95.21083 | 16678 ft | 381 kts | 27° |
| 2026-04-26 20:00 | 30.11387 | -95.19525 | 17422 ft | 386 kts | 26° |
| 2026-04-26 20:00 | 30.13702 | -95.17934 | 18205 ft | 389 kts | 26° |
| 2026-04-26 20:01 | 30.16041 | -95.16326 | 18899 ft | 393 kts | 26° |
| 2026-04-26 20:01 | 30.18407 | -95.14699 | 19592 ft | 398 kts | 26° |
| 2026-04-26 20:01 | 30.20802 | -95.13051 | 20316 ft | 402 kts | 26° |
| 2026-04-26 20:01 | 30.23225 | -95.11383 | 21048 ft | 407 kts | 25° |
| 2026-04-26 20:02 | 30.25670 | -95.09698 | 21805 ft | 412 kts | 25° |
| 2026-04-26 20:02 | 30.28146 | -95.07990 | 22571 ft | 417 kts | 25° |
| 2026-04-26 20:02 | 30.30649 | -95.06264 | 23368 ft | 421 kts | 25° |
| 2026-04-26 20:02 | 30.32324 | -95.05108 | 23829 ft | 424 kts | 25° |
| 2026-04-26 20:03 | 30.35735 | -95.02750 | 24739 ft | 430 kts | 25° |
| 2026-04-26 20:03 | 30.38311 | -95.00969 | 25443 ft | 433 kts | 25° |
| 2026-04-26 20:03 | 30.40904 | -94.99174 | 26162 ft | 435 kts | 25° |
| 2026-04-26 20:03 | 30.43511 | -94.97369 | 26867 ft | 438 kts | 24° |
| 2026-04-26 20:04 | 30.46143 | -94.95546 | 27499 ft | 442 kts | 24° |
| 2026-04-26 20:04 | 30.48790 | -94.93712 | 28141 ft | 445 kts | 24° |
| 2026-04-26 20:04 | 30.51454 | -94.91864 | 28795 ft | 447 kts | 24° |
| 2026-04-26 20:04 | 30.54130 | -94.90007 | 29461 ft | 449 kts | 24° |
| 2026-04-26 20:05 | 30.56810 | -94.88124 | 30130 ft | 452 kts | 25° |
| 2026-04-26 20:05 | 30.59450 | -94.86123 | 30723 ft | 455 kts | 26° |
| 2026-04-26 20:05 | 30.62070 | -94.84072 | 31323 ft | 454 kts | 26° |
| 2026-04-26 20:05 | 30.64687 | -94.82020 | 31942 ft | 453 kts | 26° |
| 2026-04-26 20:06 | 30.67298 | -94.79985 | 32552 ft | 452 kts | 26° |
| 2026-04-26 20:06 | 30.69899 | -94.77971 | 32840 ft | 451 kts | 25° |
| 2026-04-26 20:06 | 30.75121 | -94.73946 | 32913 ft | 455 kts | 25° |
| 2026-04-26 20:07 | 30.77808 | -94.71886 | 32913 ft | 470 kts | 25° |
| 2026-04-26 20:07 | 30.80540 | -94.69788 | 32915 ft | 483 kts | 26° |
| 2026-04-26 20:07 | 30.86231 | -94.65389 | 32910 ft | 493 kts | 26° |
| 2026-04-26 20:08 | 30.91941 | -94.60958 | 32910 ft | 493 kts | 26° |
| 2026-04-26 20:08 | 30.97654 | -94.56531 | 32903 ft | 494 kts | 26° |
| 2026-04-26 20:09 | 31.03380 | -94.52092 | 32895 ft | 494 kts | 26° |
| 2026-04-26 20:09 | 31.09109 | -94.47651 | 32886 ft | 494 kts | 26° |
| 2026-04-26 20:10 | 31.14840 | -94.43202 | 32893 ft | 495 kts | 26° |
| 2026-04-26 20:10 | 31.20570 | -94.38744 | 32889 ft | 495 kts | 26° |
| 2026-04-26 20:11 | 31.26309 | -94.34267 | 32891 ft | 496 kts | 26° |
| 2026-04-26 20:12 | 31.34922 | -94.27535 | 32895 ft | 496 kts | 26° |
| 2026-04-26 20:12 | 31.40660 | -94.23042 | 32892 ft | 496 kts | 26° |
| 2026-04-26 20:13 | 31.46361 | -94.18572 | 32892 ft | 496 kts | 26° |
| 2026-04-26 20:13 | 31.52096 | -94.14068 | 32893 ft | 496 kts | 26° |
| 2026-04-26 20:14 | 31.57820 | -94.09567 | 32895 ft | 495 kts | 26° |
| 2026-04-26 20:14 | 31.63545 | -94.05056 | 32891 ft | 495 kts | 26° |
| 2026-04-26 20:15 | 31.69261 | -94.00547 | 32891 ft | 495 kts | 26° |
| 2026-04-26 20:15 | 31.74972 | -93.96036 | 32888 ft | 495 kts | 26° |
| 2026-04-26 20:16 | 31.80585 | -93.91303 | 32884 ft | 499 kts | 31° |
| 2026-04-26 20:16 | 31.86068 | -93.86292 | 32882 ft | 499 kts | 30° |
| 2026-04-26 20:17 | 31.91511 | -93.81326 | 32878 ft | 498 kts | 30° |
| 2026-04-26 20:17 | 31.96982 | -93.76321 | 32881 ft | 498 kts | 30° |
| 2026-04-26 20:18 | 32.02441 | -93.71318 | 32880 ft | 497 kts | 31° |
| 2026-04-26 20:18 | 32.07891 | -93.66316 | 32877 ft | 496 kts | 31° |
| 2026-04-26 20:19 | 32.13330 | -93.61315 | 32877 ft | 495 kts | 31° |
| 2026-04-26 20:19 | 32.18761 | -93.56314 | 32877 ft | 495 kts | 31° |
| 2026-04-26 20:20 | 32.24189 | -93.51308 | 32872 ft | 494 kts | 31° |
| 2026-04-26 20:20 | 32.29580 | -93.46327 | 32873 ft | 494 kts | 31° |
| 2026-04-26 20:21 | 32.34989 | -93.41323 | 32870 ft | 493 kts | 31° |
| 2026-04-26 20:21 | 32.40393 | -93.36315 | 32888 ft | 493 kts | 31° |
| 2026-04-26 20:22 | 32.45791 | -93.31305 | 32900 ft | 493 kts | 31° |
| 2026-04-26 20:22 | 32.51191 | -93.26285 | 32897 ft | 493 kts | 31° |
| 2026-04-26 20:23 | 32.56558 | -93.21288 | 32899 ft | 493 kts | 31° |
| 2026-04-26 20:23 | 32.61955 | -93.16256 | 32897 ft | 494 kts | 31° |
| 2026-04-26 20:24 | 32.67347 | -93.11220 | 32891 ft | 493 kts | 31° |
| 2026-04-26 20:24 | 32.72743 | -93.06172 | 32887 ft | 493 kts | 31° |
| 2026-04-26 20:25 | 32.78128 | -93.01126 | 32885 ft | 493 kts | 31° |
| 2026-04-26 20:25 | 32.83511 | -92.96075 | 32882 ft | 493 kts | 31° |
| 2026-04-26 20:26 | 32.88900 | -92.91010 | 32885 ft | 493 kts | 32° |
| 2026-04-26 20:26 | 32.94356 | -92.86117 | 32888 ft | 486 kts | 25° |
| 2026-04-26 20:27 | 33.00386 | -92.82781 | 32896 ft | 472 kts | 11° |
| 2026-04-26 20:27 | 33.06643 | -92.80699 | 32895 ft | 470 kts | 8° |
| 2026-04-26 20:28 | 33.12976 | -92.78597 | 32897 ft | 469 kts | 8° |
| 2026-04-26 20:28 | 33.19259 | -92.76510 | 32812 ft | 463 kts | 8° |
| 2026-04-26 20:28 | 33.22314 | -92.75488 | 32471 ft | 449 kts | 8° |
| 2026-04-26 20:29 | 33.25287 | -92.74496 | 31915 ft | 440 kts | 7° |
| 2026-04-26 20:29 | 33.28213 | -92.73470 | 31342 ft | 436 kts | 9° |
| 2026-04-26 20:29 | 33.31081 | -92.72347 | 30784 ft | 430 kts | 10° |
| 2026-04-26 20:29 | 33.33897 | -92.71212 | 30246 ft | 424 kts | 9° |
| 2026-04-26 20:30 | 33.36657 | -92.70106 | 29687 ft | 428 kts | 9° |
| 2026-04-26 20:30 | 33.39543 | -92.68979 | 29060 ft | 441 kts | 9° |
| 2026-04-26 20:30 | 33.42445 | -92.67842 | 28431 ft | 437 kts | 10° |
| 2026-04-26 20:30 | 33.45307 | -92.66714 | 27832 ft | 429 kts | 10° |
| 2026-04-26 20:31 | 33.48120 | -92.65605 | 27255 ft | 422 kts | 10° |
| 2026-04-26 20:31 | 33.50903 | -92.64514 | 26641 ft | 421 kts | 10° |
| 2026-04-26 20:31 | 33.53688 | -92.63425 | 26008 ft | 419 kts | 11° |
| 2026-04-26 20:31 | 33.56440 | -92.62347 | 25385 ft | 413 kts | 11° |
| 2026-04-26 20:32 | 33.59156 | -92.61281 | 24797 ft | 408 kts | 11° |
| 2026-04-26 20:32 | 33.61845 | -92.60226 | 24223 ft | 406 kts | 11° |
| 2026-04-26 20:32 | 33.64528 | -92.59175 | 23659 ft | 404 kts | 11° |
| 2026-04-26 20:32 | 33.67181 | -92.58131 | 23030 ft | 399 kts | 12° |
| 2026-04-26 20:33 | 33.68919 | -92.57446 | 22605 ft | 396 kts | 12° |
| 2026-04-26 20:33 | 33.71531 | -92.56418 | 21909 ft | 394 kts | 12° |
| 2026-04-26 20:33 | 33.74126 | -92.55400 | 21207 ft | 390 kts | 11° |
| 2026-04-26 20:33 | 33.77542 | -92.54143 | 20313 ft | 385 kts | 11° |
| 2026-04-26 20:34 | 33.79267 | -92.53512 | 19872 ft | 383 kts | 11° |
| 2026-04-26 20:34 | 33.81801 | -92.52585 | 19236 ft | 379 kts | 11° |
| 2026-04-26 20:34 | 33.84313 | -92.51666 | 18616 ft | 375 kts | 11° |
| 2026-04-26 20:34 | 33.86806 | -92.50755 | 17992 ft | 372 kts | 11° |
| 2026-04-26 20:35 | 33.89267 | -92.49857 | 17310 ft | 368 kts | 11° |
| 2026-04-26 20:35 | 33.91709 | -92.48965 | 16648 ft | 365 kts | 11° |
| 2026-04-26 20:35 | 33.94129 | -92.48083 | 16007 ft | 362 kts | 11° |
| 2026-04-26 20:35 | 33.96529 | -92.47208 | 15388 ft | 359 kts | 12° |
| 2026-04-26 20:36 | 33.98906 | -92.46341 | 14781 ft | 356 kts | 12° |
| 2026-04-26 20:36 | 34.01271 | -92.45480 | 14200 ft | 355 kts | 12° |
| 2026-04-26 20:36 | 34.03609 | -92.44629 | 13617 ft | 355 kts | 12° |
| 2026-04-26 20:36 | 34.05960 | -92.43774 | 12969 ft | 352 kts | 13° |
| 2026-04-26 20:37 | 34.08303 | -92.42922 | 12345 ft | 350 kts | 13° |
| 2026-04-26 20:37 | 34.10626 | -92.42078 | 11738 ft | 347 kts | 14° |
| 2026-04-26 20:37 | 34.12935 | -92.41240 | 11140 ft | 344 kts | 14° |
| 2026-04-26 20:37 | 34.15219 | -92.40412 | 10562 ft | 342 kts | 14° |
| 2026-04-26 20:38 | 34.17494 | -92.39587 | 9997 ft | 340 kts | 15° |
| 2026-04-26 20:38 | 34.19757 | -92.38766 | 9410 ft | 338 kts | 15° |
| 2026-04-26 20:38 | 34.21996 | -92.37953 | 8808 ft | 335 kts | 15° |
| 2026-04-26 20:38 | 34.24198 | -92.37153 | 8215 ft | 324 kts | 15° |
| 2026-04-26 20:39 | 34.26328 | -92.36380 | 7656 ft | 313 kts | 15° |
| 2026-04-26 20:39 | 34.28378 | -92.35618 | 7134 ft | 303 kts | 16° |
| 2026-04-26 20:39 | 34.30359 | -92.34858 | 6629 ft | 294 kts | 17° |
| 2026-04-26 20:39 | 34.32283 | -92.34115 | 6143 ft | 287 kts | 17° |
| 2026-04-26 20:40 | 34.34202 | -92.33372 | 5645 ft | 293 kts | 17° |
| 2026-04-26 20:40 | 34.36149 | -92.32617 | 5143 ft | 295 kts | 17° |
| 2026-04-26 20:40 | 34.38105 | -92.31859 | 4640 ft | 295 kts | 17° |
| 2026-04-26 20:40 | 34.40035 | -92.31113 | 4192 ft | 285 kts | 17° |
| 2026-04-26 20:41 | 34.41903 | -92.30390 | 4037 ft | 284 kts | 18° |
| 2026-04-26 20:41 | 34.43774 | -92.29666 | 3991 ft | 279 kts | 18° |
| 2026-04-26 20:41 | 34.45629 | -92.28949 | 3994 ft | 281 kts | 18° |
| 2026-04-26 20:41 | 34.47459 | -92.28243 | 3996 ft | 281 kts | 18° |
| 2026-04-26 20:42 | 34.49327 | -92.27520 | 4002 ft | 282 kts | 18° |
| 2026-04-26 20:42 | 34.51200 | -92.26796 | 3956 ft | 281 kts | 18° |
| 2026-04-26 20:42 | 34.53032 | -92.26086 | 3784 ft | 272 kts | 18° |
| 2026-04-26 20:42 | 34.54805 | -92.25399 | 3616 ft | 265 kts | 18° |
| 2026-04-26 20:43 | 34.56552 | -92.24721 | 3447 ft | 263 kts | 18° |
| 2026-04-26 20:43 | 34.58296 | -92.24043 | 3278 ft | 263 kts | 18° |
| 2026-04-26 20:43 | 34.60039 | -92.23367 | 3113 ft | 262 kts | 18° |
| 2026-04-26 20:43 | 34.61779 | -92.22693 | 2961 ft | 262 kts | 18° |
| 2026-04-26 20:44 | 34.63502 | -92.22026 | 2793 ft | 259 kts | 19° |
| 2026-04-26 20:44 | 34.65173 | -92.21295 | 2618 ft | 251 kts | 30° |
| 2026-04-26 20:44 | 34.66560 | -92.20074 | 2461 ft | 242 kts | 41° |
| 2026-04-26 20:44 | 34.67825 | -92.18802 | 2303 ft | 236 kts | 41° |
| 2026-04-26 20:45 | 34.69070 | -92.17547 | 2146 ft | 230 kts | 41° |
| 2026-04-26 20:45 | 34.70289 | -92.16308 | 2028 ft | 231 kts | 42° |
| 2026-04-26 20:45 | 34.71508 | -92.15046 | 1954 ft | 227 kts | 43° |
| 2026-04-26 20:45 | 34.72709 | -92.13774 | 1885 ft | 229 kts | 44° |
| 2026-04-26 20:46 | 34.73848 | -92.12547 | 1807 ft | 205 kts | 45° |
| 2026-04-26 20:46 | 34.74883 | -92.11531 | 1859 ft | 182 kts | 32° |
| 2026-04-26 20:46 | 34.76114 | -92.11073 | 2321 ft | 179 kts | 7° |
| 2026-04-26 20:46 | 34.77251 | -92.11260 | 2454 ft | 159 kts | 340° |
| 2026-04-26 20:47 | 34.78288 | -92.11773 | 2158 ft | 152 kts | 330° |
| 2026-04-26 20:47 | 34.78768 | -92.12296 | 2214 ft | 143 kts | 303° |
| 2026-04-26 20:47 | 34.79138 | -92.13837 | 2179 ft | 140 kts | 262° |
| 2026-04-26 20:47 | 34.78752 | -92.14869 | 2331 ft | 135 kts | 226° |
| 2026-04-26 20:48 | 34.78050 | -92.15601 | 2035 ft | 130 kts | 208° |
| 2026-04-26 20:48 | 34.77244 | -92.16080 | 1676 ft | 131 kts | 198° |
| 2026-04-26 20:48 | 34.76444 | -92.16555 | 1326 ft | 129 kts | 210° |
| 2026-04-26 20:48 | 34.75760 | -92.17289 | 1002 ft | 130 kts | 223° |
| 2026-04-26 20:49 | 34.75142 | -92.18084 | 821 ft | 133 kts | 221° |
| 2026-04-26 20:49 | 34.74518 | -92.18847 | 625 ft | 126 kts | 224° |
| 2026-04-26 20:49 | 34.73876 | -92.19630 | 409 ft | 132 kts | 226° |
| 2026-04-26 20:49 | 34.73271 | -92.20423 | 267 ft | 122 kts | 223° |
| 2026-04-26 20:50 | 34.72782 | -92.21039 | 255 ft | 73 kts | 226° |
| 2026-04-26 20:50 | 34.72537 | -92.21360 | 259 ft | 41 kts | 231° |
| 2026-04-26 20:50 | 34.72427 | -92.21586 | 258 ft | 23 kts | 252° |
| 2026-04-26 20:50 | 34.72446 | -92.21689 | 257 ft | 9 kts | 351° |
| 2026-04-26 20:51 | 34.72490 | -92.21674 | 259 ft | 7 kts | 49° |
| 2026-04-26 20:51 | 34.72536 | -92.21616 | 260 ft | 13 kts | 46° |
| 2026-04-26 20:51 | 34.72613 | -92.21518 | 259 ft | 20 kts | 47° |
| 2026-04-26 20:51 | 34.72720 | -92.21380 | 258 ft | 18 kts | 47° |
| 2026-04-26 20:52 | 34.72807 | -92.21283 | 257 ft | 17 kts | 44° |
| 2026-04-26 20:52 | 34.72889 | -92.21232 | 256 ft | 14 kts | 333° |
| 2026-04-26 20:52 | 34.72941 | -92.21343 | 258 ft | 17 kts | 292° |
| 2026-04-26 20:52 | 34.72994 | -92.21488 | 263 ft | 20 kts | 296° |
| 2026-04-26 20:53 | 34.73049 | -92.21636 | 268 ft | 12 kts | 294° |
| 2026-04-26 20:53 | 34.73085 | -92.21740 | 268 ft | 12 kts | 280° |
| 2026-04-26 20:53 | 34.73021 | -92.21827 | 266 ft | 14 kts | 209° |
| 2026-04-26 20:53 | 34.72959 | -92.21886 | 266 ft | 4 kts | 242° |
| 2026-04-26 20:54 | 34.72957 | -92.21905 | 266 ft | 5 kts | 268° |
| 2026-04-26 20:54 | 34.72966 | -92.21961 | 266 ft | 0 kts | 286° |